createdAt,value
2022-10-21T00:02:10.573Z,99663.06
2022-10-21T00:04:39.534Z,99652.97
2022-10-21T00:07:09.384Z,99663.41
2022-10-21T00:09:37.797Z,99652.13
2022-10-21T00:12:06.334Z,99672.50
2022-10-21T00:14:35.742Z,99672.00
2022-10-21T00:17:04.163Z,99664.06
2022-10-21T00:19:32.631Z,99663.22
2022-10-21T00:22:01.038Z,99658.97
2022-10-21T00:24:30.882Z,99655.81
2022-10-21T00:26:59.373Z,99650.84
2022-10-21T00:29:27.772Z,99647.38
2022-10-21T00:31:56.240Z,99661.16
2022-10-21T00:34:35.500Z,99652.72
2022-10-21T00:37:03.974Z,99658.47
2022-10-21T00:39:33.960Z,99651.88
2022-10-21T00:42:02.860Z,99666.38
2022-10-21T00:44:32.169Z,99655.53
2022-10-21T00:47:04.190Z,99649.28
2022-10-21T00:49:39.268Z,99640.03
2022-10-21T00:52:13.338Z,99649.09
2022-10-21T00:54:44.276Z,99636.59
2022-10-21T00:57:13.063Z,99640.56
2022-10-21T00:59:45.172Z,99654.97
2022-10-21T01:02:13.699Z,99634.47
2022-10-21T01:04:42.286Z,99640.41
2022-10-21T01:07:11.254Z,99617.97
2022-10-21T01:09:39.756Z,99625.66
2022-10-21T01:12:18.391Z,99644.66
2022-10-21T01:14:55.520Z,99658.69
2022-10-21T01:17:45.178Z,99624.44
2022-10-21T01:20:47.401Z,99648.84
2022-10-21T01:23:47.951Z,99642.34
2022-10-21T01:26:53.913Z,99609.09
2022-10-21T01:29:52.823Z,99647.41
2022-10-21T01:32:30.140Z,99640.25
2022-10-21T01:35:04.422Z,99642.88
2022-10-21T01:37:42.046Z,99632.66
2022-10-21T01:40:19.104Z,99633.66
2022-10-21T01:42:54.039Z,99643.28
2022-10-21T01:45:30.464Z,99628.38
2022-10-21T01:48:04.996Z,99633.94
2022-10-21T01:50:38.049Z,99638.84
2022-10-21T01:53:10.452Z,99630.94
2022-10-21T01:55:40.934Z,99631.56
2022-10-21T01:58:14.314Z,99634.72
2022-10-21T02:00:44.909Z,99631.47
2022-10-21T02:03:18.831Z,99629.69
2022-10-21T02:05:47.241Z,99624.94
2022-10-21T02:08:16.053Z,99627.06
2022-10-21T02:10:48.481Z,99619.84
2022-10-21T02:13:24.327Z,99632.41
2022-10-21T02:15:56.421Z,99603.94
2022-10-21T02:18:28.075Z,99616.19
2022-10-21T02:20:59.890Z,99614.88
2022-10-21T02:23:35.090Z,99610.25
2022-10-21T02:26:03.910Z,99612.31
2022-10-21T02:28:33.554Z,99609.69
2022-10-21T02:31:13.452Z,99595.66
2022-10-21T02:33:53.123Z,99595.88
2022-10-21T02:36:32.010Z,99580.34
2022-10-21T02:39:08.560Z,99585.00
2022-10-21T02:41:39.084Z,99586.03
2022-10-21T02:44:09.125Z,99582.06
2022-10-21T02:46:38.945Z,99585.06
2022-10-21T02:49:09.214Z,99591.00
2022-10-21T02:51:37.696Z,99585.72
2022-10-21T02:54:06.225Z,99586.09
2022-10-21T02:56:35.514Z,99586.44
2022-10-21T02:59:04.180Z,99569.28
2022-10-21T03:01:32.672Z,99567.34
2022-10-21T03:04:01.096Z,99567.16
2022-10-21T03:06:30.886Z,99561.22
2022-10-21T03:08:59.403Z,99568.50
2022-10-21T03:11:27.869Z,99565.06
2022-10-21T03:13:56.267Z,99554.50
2022-10-21T03:16:24.708Z,99560.09
2022-10-21T03:18:53.438Z,99556.78
2022-10-21T03:21:22.255Z,99575.31
2022-10-21T03:23:52.079Z,99572.47
2022-10-21T03:26:20.537Z,99564.03
2022-10-21T03:28:48.990Z,99563.19
2022-10-21T03:31:17.639Z,99556.22
2022-10-21T03:33:46.019Z,99546.50
2022-10-21T03:36:14.444Z,99554.41
2022-10-21T03:38:42.995Z,99565.13
2022-10-21T03:41:12.825Z,99567.06
2022-10-21T03:43:41.248Z,99572.16
2022-10-21T03:46:09.698Z,99558.19
2022-10-21T03:48:38.113Z,99550.97
2022-10-21T03:51:06.925Z,99544.63
2022-10-21T03:53:43.417Z,99562.16
2022-10-21T03:56:14.036Z,99551.38
2022-10-21T03:58:43.543Z,99560.69
2022-10-21T04:01:14.124Z,99570.31
2022-10-21T04:03:42.937Z,99581.38
2022-10-21T04:06:11.545Z,99573.31
2022-10-21T04:08:40.048Z,99560.13
2022-10-21T04:11:08.516Z,99547.63
2022-10-21T04:13:38.396Z,99579.41
2022-10-21T04:16:12.102Z,99566.53
2022-10-21T04:18:40.544Z,99568.94
2022-10-21T04:21:10.020Z,99577.00
2022-10-21T04:23:38.561Z,99573.19
2022-10-21T04:26:07.786Z,99579.72
2022-10-21T04:28:37.829Z,99588.25
2022-10-21T04:31:06.608Z,99581.06
2022-10-21T04:33:35.066Z,99586.69
2022-10-21T04:36:03.527Z,99591.31
2022-10-21T04:38:32.017Z,99568.16
2022-10-21T04:41:01.686Z,99584.25
2022-10-21T04:43:30.797Z,99592.31
2022-10-21T04:46:00.717Z,99595.66
2022-10-21T04:48:29.234Z,99590.75
2022-10-21T04:50:57.990Z,99590.88
2022-10-21T04:53:26.505Z,99586.41
2022-10-21T04:55:55.547Z,99609.03
2022-10-21T04:58:24.308Z,99599.31
2022-10-21T05:03:56.801Z,99585.66
2022-10-21T05:06:25.682Z,99599.00
2022-10-21T05:08:54.257Z,99601.34
2022-10-21T05:11:22.756Z,99587.66
2022-10-21T05:13:51.198Z,99604.00
2022-10-21T05:16:19.681Z,99592.09
2022-10-21T05:18:48.153Z,99596.06
2022-10-21T05:21:18.259Z,99603.69
2022-10-21T05:23:46.691Z,99589.63
2022-10-21T05:26:15.173Z,99607.16
2022-10-21T05:28:43.604Z,99603.31
2022-10-21T05:31:12.047Z,99597.50
2022-10-21T05:33:40.543Z,99585.97
2022-10-21T05:36:09.407Z,99598.53
2022-10-21T05:38:39.234Z,99602.66
2022-10-21T05:41:07.896Z,99607.47
2022-10-21T05:43:36.294Z,99617.22
2022-10-21T05:46:04.981Z,99621.53
2022-10-21T05:48:33.695Z,99627.78
2022-10-21T05:51:02.094Z,99609.25
2022-10-21T05:53:30.504Z,99618.47
2022-10-21T05:56:02.900Z,99609.56
2022-10-21T05:58:32.728Z,99629.56
2022-10-21T06:01:02.109Z,99633.06
2022-10-21T06:03:32.502Z,99635.72
2022-10-21T06:06:02.629Z,99616.38
2022-10-21T06:08:33.036Z,99623.38
2022-10-21T06:11:04.961Z,99636.41
2022-10-21T06:13:33.661Z,99627.91
2022-10-21T06:16:02.227Z,99641.44
2022-10-21T06:18:30.800Z,99642.41
2022-10-21T06:20:59.401Z,99654.19
2022-10-21T06:23:28.220Z,99647.09
2022-10-21T06:25:57.999Z,99650.09
2022-10-21T06:28:29.644Z,99645.94
2022-10-21T06:31:06.840Z,99623.31
2022-10-21T06:33:36.261Z,99644.97
2022-10-21T06:36:05.533Z,99647.81
2022-10-21T06:38:34.025Z,99631.94
2022-10-21T06:41:06.885Z,99635.25
2022-10-21T06:43:39.254Z,99625.84
2022-10-21T06:46:10.305Z,99631.94
2022-10-21T06:48:39.205Z,99621.72
2022-10-21T06:51:09.564Z,99632.78
2022-10-21T06:53:39.643Z,99632.78
2022-10-21T06:56:10.019Z,99642.66
2022-10-21T06:58:43.452Z,99633.94
2022-10-21T07:01:27.396Z,99643.09
2022-10-21T07:04:03.472Z,99649.56
2022-10-21T07:09:01.809Z,99653.50
2022-10-21T07:11:30.409Z,99655.34
2022-10-21T07:14:01.952Z,99657.88
2022-10-21T07:16:32.893Z,99655.50
2022-10-21T07:19:01.444Z,99655.22
2022-10-21T07:21:31.991Z,99644.69
2022-10-21T07:24:01.578Z,99630.47
2022-10-21T07:26:34.009Z,99624.81
2022-10-21T07:29:06.965Z,99639.41
2022-10-21T07:31:38.127Z,99630.47
2022-10-21T07:34:08.489Z,99630.31
2022-10-21T07:36:39.191Z,99630.84
2022-10-21T07:39:11.109Z,99628.53
2022-10-21T07:41:41.719Z,99635.97
2022-10-21T07:44:12.651Z,99632.56
2022-10-21T07:46:45.892Z,99643.47
2022-10-21T07:49:15.710Z,99639.03
2022-10-21T07:51:46.425Z,99643.16
2022-10-21T07:54:15.763Z,99632.22
2022-10-21T07:56:46.086Z,99648.44
2022-10-21T07:59:17.581Z,99638.78
2022-10-21T08:04:23.358Z,99631.88
2022-10-21T08:06:52.052Z,99620.41
2022-10-21T08:09:20.593Z,99626.13
2022-10-21T08:11:49.878Z,99599.44
2022-10-21T08:14:19.960Z,99607.63
2022-10-21T08:16:52.768Z,99606.75
2022-10-21T08:19:24.726Z,99597.47
2022-10-21T08:21:53.176Z,99588.41
2022-10-21T08:24:23.569Z,99595.78
2022-10-21T08:26:52.290Z,99611.25
2022-10-21T08:29:22.189Z,99605.88
2022-10-21T08:31:50.611Z,99631.41
2022-10-21T08:34:19.105Z,99633.28
2022-10-21T08:36:47.537Z,99614.34
2022-10-21T08:39:16.375Z,99584.09
2022-10-21T08:42:13.179Z,99650.31
2022-10-21T08:44:49.817Z,99656.88
2022-10-21T08:47:31.193Z,99657.22
2022-10-21T08:50:03.788Z,99667.88
2022-10-21T08:52:40.197Z,99666.84
2022-10-21T08:55:17.423Z,99677.75
2022-10-21T08:57:46.142Z,99670.47
2022-10-21T09:00:22.735Z,99664.69
2022-10-21T09:03:01.953Z,99663.72
2022-10-21T09:06:03.289Z,99681.41
2022-10-21T09:08:38.143Z,99686.22
2022-10-21T09:11:20.604Z,99681.88
2022-10-21T09:14:13.447Z,99671.47
2022-10-21T09:16:51.947Z,99684.94
2022-10-21T09:19:33.452Z,99679.22
2022-10-21T09:22:34.423Z,99671.44
2022-10-21T09:25:16.890Z,99666.63
2022-10-21T09:27:55.508Z,99665.97
2022-10-21T09:30:25.939Z,99697.78
2022-10-21T09:32:59.827Z,99699.31
2022-10-21T09:35:36.350Z,99700.34
2022-10-21T09:38:15.062Z,99722.88
2022-10-21T09:40:44.323Z,99721.56
2022-10-21T09:43:19.590Z,99713.28
2022-10-21T09:45:48.611Z,99721.16
2022-10-21T09:48:35.123Z,99699.13
2022-10-21T09:51:15.634Z,99700.13
2022-10-21T09:53:53.999Z,99697.19
2022-10-21T09:56:27.631Z,99682.13
2022-10-21T09:59:08.077Z,99691.53
2022-10-21T10:01:38.214Z,99681.13
2022-10-21T10:04:14.182Z,99698.25
2022-10-21T10:06:44.758Z,99691.38
2022-10-21T10:09:19.115Z,99699.91
2022-10-21T10:11:57.614Z,99689.19
2022-10-21T10:14:33.383Z,99677.25
2022-10-21T10:17:29.043Z,99667.69
2022-10-21T10:20:18.723Z,99662.59
2022-10-21T10:22:48.186Z,99654.72
2022-10-21T10:25:26.542Z,99651.22
2022-10-21T10:27:57.734Z,99639.69
2022-10-21T10:30:28.539Z,99650.44
2022-10-21T10:32:58.432Z,99639.44
2022-10-21T10:35:32.381Z,99634.06
2022-10-21T10:38:02.810Z,99634.81
2022-10-21T10:40:39.643Z,99635.03
2022-10-21T10:43:14.990Z,99640.06
2022-10-21T10:45:50.187Z,99643.78
2022-10-21T10:48:25.343Z,99640.72
2022-10-21T10:50:55.953Z,99625.13
2022-10-21T10:53:30.497Z,99627.19
2022-10-21T10:56:07.841Z,99631.53
2022-10-21T10:58:40.052Z,99624.31
2022-10-21T11:01:18.944Z,99595.28
2022-10-21T11:03:53.273Z,99630.31
2022-10-21T11:06:33.324Z,99635.56
2022-10-21T11:09:03.695Z,99623.53
2022-10-21T11:11:37.840Z,99615.31
2022-10-21T11:14:15.442Z,99637.91
2022-10-21T11:17:02.099Z,99631.41
2022-10-21T11:19:41.185Z,99639.75
2022-10-21T11:22:23.011Z,99644.22
2022-10-21T11:25:05.654Z,99628.50
2022-10-21T11:27:55.369Z,99648.97
2022-10-21T11:30:30.212Z,99640.94
2022-10-21T11:33:10.361Z,99603.50
2022-10-21T11:35:56.722Z,99619.81
2022-10-21T11:38:45.922Z,99621.09
2022-10-21T11:41:28.247Z,99634.72
2022-10-21T11:44:06.679Z,99625.50
2022-10-21T11:46:48.479Z,99625.47
2022-10-21T11:49:41.110Z,99620.69
2022-10-21T11:52:20.939Z,99587.34
2022-10-21T11:55:28.193Z,99576.19
2022-10-21T11:58:08.317Z,99582.13
2022-10-21T12:00:46.078Z,99575.41
2022-10-21T12:03:41.051Z,99584.06
2022-10-21T12:06:22.694Z,99578.94
2022-10-21T12:08:58.666Z,99566.56
2022-10-21T12:11:34.340Z,99568.81
2022-10-21T12:14:09.826Z,99570.34
2022-10-21T12:16:38.347Z,99575.97
2022-10-21T12:19:12.298Z,99571.97
2022-10-21T12:21:45.045Z,99565.56
2022-10-21T12:24:25.678Z,99549.59
2022-10-21T12:27:04.922Z,99538.41
2022-10-21T12:29:48.078Z,99543.72
2022-10-21T12:32:23.687Z,99541.13
2022-10-21T12:34:52.363Z,99538.31
2022-10-21T12:37:43.549Z,99539.72
2022-10-21T12:40:15.458Z,99531.22
2022-10-21T12:42:58.251Z,99527.56
2022-10-21T12:45:29.073Z,99522.25
2022-10-21T12:47:58.292Z,99526.28
2022-10-21T12:50:30.132Z,99532.84
2022-10-21T12:53:13.356Z,99534.97
2022-10-21T12:55:42.982Z,99528.31
2022-10-21T12:58:26.750Z,99539.22
2022-10-21T13:00:58.187Z,99552.56
2022-10-21T13:03:52.620Z,99534.84
2022-10-21T13:06:54.880Z,99521.47
2022-10-21T13:09:38.644Z,99516.97
2022-10-21T13:12:27.287Z,99495.03
2022-10-21T13:14:59.468Z,99501.50
2022-10-21T13:17:33.982Z,99521.88
2022-10-21T13:20:39.880Z,99529.06
2022-10-21T13:23:31.922Z,99516.56
2022-10-21T13:26:25.655Z,99510.28
2022-10-21T13:29:00.688Z,99506.81
2022-10-21T13:31:31.461Z,99501.31
2022-10-21T13:34:00.290Z,99492.88
2022-10-21T13:36:43.031Z,99505.09
2022-10-21T13:39:26.175Z,99508.41
2022-10-21T13:42:01.631Z,99496.44
2022-10-21T13:44:34.878Z,99487.91
2022-10-21T13:47:32.301Z,99493.34
2022-10-21T13:50:12.094Z,99521.38
2022-10-21T13:52:43.785Z,99557.53
2022-10-21T13:55:19.963Z,99570.03
2022-10-21T13:57:50.043Z,99573.94
2022-10-21T14:00:23.332Z,99573.50
2022-10-21T14:02:54.738Z,99586.13
2022-10-21T14:05:31.577Z,99569.38
2022-10-21T14:08:00.507Z,99585.31
2022-10-21T14:10:30.899Z,99577.09
2022-10-21T14:13:00.831Z,99557.56
2022-10-21T14:15:41.087Z,99566.16
2022-10-21T14:18:28.247Z,99559.69
2022-10-21T14:20:59.220Z,99545.28
2022-10-21T14:23:28.913Z,99553.63
2022-10-21T14:26:04.944Z,99560.28
2022-10-21T14:28:34.500Z,99563.31
2022-10-21T14:33:39.629Z,99569.31
2022-10-21T14:36:12.774Z,99565.00
2022-10-21T14:38:44.255Z,99564.91
2022-10-21T14:41:20.632Z,99564.25
2022-10-21T14:43:52.714Z,99560.47
2022-10-21T14:46:22.069Z,99556.25
2022-10-21T14:48:55.648Z,99562.16
2022-10-21T14:51:24.666Z,99560.41
2022-10-21T14:53:57.565Z,99579.91
2022-10-21T14:56:32.390Z,99594.47
2022-10-21T14:59:03.365Z,99615.56
2022-10-21T15:01:32.456Z,99628.00
2022-10-21T15:04:02.950Z,99622.41
2022-10-21T15:06:34.696Z,99611.69
2022-10-21T15:09:19.594Z,99619.56
2022-10-21T15:11:48.588Z,99634.41
2022-10-21T15:14:33.138Z,99633.16
2022-10-21T15:17:05.123Z,99629.91
2022-10-21T15:19:46.358Z,99611.69
2022-10-21T15:22:26.126Z,99620.22
2022-10-21T15:24:59.589Z,99625.91
2022-10-21T15:27:36.593Z,99623.94
2022-10-21T15:30:07.652Z,99616.50
2022-10-21T15:32:45.242Z,99620.88
2022-10-21T15:35:18.314Z,99599.81
2022-10-21T15:37:49.654Z,99637.16
2022-10-21T15:40:19.178Z,99627.84
2022-10-21T15:42:48.262Z,99627.97
2022-10-21T15:45:19.449Z,99630.31
2022-10-21T15:47:52.603Z,99630.66
2022-10-21T15:50:25.514Z,99614.75
2022-10-21T15:55:27.789Z,99608.72
2022-10-21T15:57:56.182Z,99618.28
2022-10-21T16:00:25.176Z,99631.16
2022-10-21T16:02:53.882Z,99630.44
2022-10-21T16:05:23.757Z,99638.34
2022-10-21T16:07:52.527Z,99639.84
2022-10-21T16:10:23.338Z,99639.06
2022-10-21T16:12:51.875Z,99627.06
2022-10-21T16:15:21.363Z,99625.59
2022-10-21T16:17:53.683Z,99618.81
2022-10-21T16:20:25.035Z,99617.63
2022-10-21T16:22:54.187Z,99614.22
2022-10-21T16:25:23.340Z,99601.69
2022-10-21T16:27:56.365Z,99615.69
2022-10-21T16:30:27.768Z,99620.16
2022-10-21T16:32:57.321Z,99624.41
2022-10-21T16:35:27.761Z,99588.41
2022-10-21T16:37:56.857Z,99623.03
2022-10-21T16:40:27.667Z,99637.06
2022-10-21T16:42:56.639Z,99611.28
2022-10-21T16:45:30.142Z,99637.41
2022-10-21T16:48:01.141Z,99637.03
2022-10-21T16:50:39.732Z,99642.94
2022-10-21T16:53:15.989Z,99630.69
2022-10-21T16:55:44.603Z,99653.72
2022-10-21T16:58:13.020Z,99638.91
2022-10-21T17:00:42.447Z,99638.03
2022-10-21T17:03:12.222Z,99651.78
2022-10-21T17:05:42.051Z,99645.75
2022-10-21T17:08:10.481Z,99645.59
2022-10-21T17:10:38.963Z,99648.59
2022-10-21T17:13:07.391Z,99656.91
2022-10-21T17:15:36.191Z,99652.78
2022-10-21T17:18:05.126Z,99675.44
2022-10-21T17:20:33.958Z,99677.78
2022-10-21T17:23:04.674Z,99685.25
2022-10-21T17:25:33.124Z,99693.00
2022-10-21T17:28:04.061Z,99677.84
2022-10-21T17:30:33.053Z,99687.75
2022-10-21T17:33:01.568Z,99705.00
2022-10-21T17:35:30.247Z,99680.84
2022-10-21T17:37:58.712Z,99705.00
2022-10-21T17:40:29.093Z,99694.06
2022-10-21T17:42:58.537Z,99707.31
2022-10-21T17:45:27.345Z,99710.97
2022-10-21T17:47:55.806Z,99716.25
2022-10-21T17:50:26.931Z,99723.19
2022-10-21T17:52:56.273Z,99737.41
2022-10-21T17:55:24.754Z,99737.72
2022-10-21T17:57:54.642Z,99747.00
2022-10-21T18:00:23.489Z,99740.06
2022-10-21T18:02:51.974Z,99744.66
2022-10-21T18:05:21.416Z,99742.34
2022-10-21T18:07:49.816Z,99754.91
2022-10-21T18:10:18.321Z,99721.47
2022-10-21T18:12:46.905Z,99746.63
2022-10-21T18:15:16.824Z,99754.56
2022-10-21T18:17:45.684Z,99751.91
2022-10-21T18:20:17.046Z,99738.22
2022-10-21T18:22:45.473Z,99724.78
2022-10-21T18:25:15.519Z,99714.34
2022-10-21T18:30:19.029Z,99751.72
2022-10-21T18:32:47.625Z,99754.22
2022-10-21T18:35:16.199Z,99748.25
2022-10-21T18:37:44.921Z,99740.69
2022-10-21T18:40:13.880Z,99749.94
2022-10-21T18:42:42.364Z,99736.41
2022-10-21T18:45:11.638Z,99741.53
2022-10-21T18:47:42.265Z,99743.84
2022-10-21T18:50:12.505Z,99723.16
2022-10-21T18:52:41.425Z,99729.78
2022-10-21T18:55:11.049Z,99740.38
2022-10-21T18:57:39.853Z,99714.19
2022-10-21T19:00:10.136Z,99761.22
2022-10-21T19:02:39.104Z,99709.91
2022-10-21T19:05:09.657Z,99750.31
2022-10-21T19:07:38.479Z,99742.84
2022-10-21T19:10:08.695Z,99752.59
2022-10-21T19:12:37.141Z,99730.75
2022-10-21T19:15:06.784Z,99751.94
2022-10-21T19:17:35.507Z,99741.38
2022-10-21T19:20:04.006Z,99751.25
2022-10-21T19:22:34.162Z,99755.53
2022-10-21T19:25:02.580Z,99747.75
2022-10-21T19:27:31.005Z,99755.34
2022-10-21T19:29:59.606Z,99748.81
2022-10-21T19:32:28.021Z,99755.84
2022-10-21T19:34:56.453Z,99750.22
2022-10-21T19:37:25.121Z,99741.28
2022-10-21T19:39:55.513Z,99729.00
2022-10-21T19:42:24.365Z,99758.31
2022-10-21T19:44:52.898Z,99758.16
2022-10-21T19:47:21.340Z,99749.81
2022-10-21T19:49:49.765Z,99763.41
2022-10-21T19:52:18.244Z,99740.69
2022-10-21T19:54:46.774Z,99767.00
2022-10-21T19:57:16.554Z,99757.06
2022-10-21T19:59:45.150Z,99772.63
2022-10-21T20:02:15.371Z,99763.00
2022-10-21T20:04:43.965Z,99769.31
2022-10-21T20:07:12.489Z,99771.50
2022-10-21T20:09:41.079Z,99766.34
2022-10-21T20:12:09.861Z,99755.47
2022-10-21T20:14:39.730Z,99754.09
2022-10-21T20:17:09.129Z,99757.75
2022-10-21T20:19:37.720Z,99700.94
2022-10-21T20:22:06.338Z,99753.13
2022-10-21T20:24:34.841Z,99725.06
2022-10-21T20:27:03.302Z,99713.50
2022-10-21T20:29:31.923Z,99760.72
2022-10-21T20:32:02.170Z,99712.69
2022-10-21T20:34:33.974Z,99753.25
2022-10-21T20:37:05.552Z,99755.38
2022-10-21T20:39:33.990Z,99775.19
2022-10-21T20:42:03.683Z,99765.63
2022-10-21T20:44:32.276Z,99771.53
2022-10-21T20:47:02.112Z,99772.53
2022-10-21T20:49:30.573Z,99772.16
2022-10-21T20:51:59.078Z,99776.91
2022-10-21T20:54:29.181Z,99755.44
2022-10-21T20:56:57.685Z,99766.88
2022-10-21T20:59:26.186Z,99774.97
2022-10-21T21:01:55.021Z,99768.53
2022-10-21T21:04:25.673Z,99776.47
2022-10-21T21:06:54.342Z,99773.34
2022-10-21T21:12:12.238Z,99763.25
2022-10-21T21:14:41.335Z,99772.88
2022-10-21T21:17:09.820Z,99781.16
2022-10-21T21:19:39.890Z,99785.63
2022-10-21T21:22:09.283Z,99784.78
2022-10-21T21:24:37.809Z,99777.69
2022-10-21T21:27:06.281Z,99785.97
2022-10-21T21:29:34.786Z,99793.25
2022-10-21T21:32:03.468Z,99791.09
2022-10-21T21:34:32.506Z,99811.59
2022-10-21T21:37:02.277Z,99793.38
2022-10-21T21:39:30.721Z,99799.28
2022-10-21T21:41:59.301Z,99804.38
2022-10-21T21:44:28.123Z,99799.72
2022-10-21T21:46:57.205Z,99808.03
2022-10-21T21:49:26.234Z,99795.69
2022-10-21T21:51:54.675Z,99807.94
2022-10-21T21:54:24.589Z,99820.97
2022-10-21T21:56:57.388Z,99816.63
2022-10-21T21:59:41.503Z,99821.06
2022-10-21T22:02:16.556Z,99819.63
2022-10-21T22:04:51.131Z,99804.19
2022-10-21T22:07:22.315Z,99815.28
2022-10-21T22:09:52.180Z,99810.28
2022-10-21T22:12:23.372Z,99819.50
2022-10-21T22:14:53.766Z,99810.59
2022-10-21T22:17:22.455Z,99815.78
2022-10-21T22:22:40.077Z,99806.56
2022-10-21T22:25:13.367Z,99813.34
2022-10-21T22:27:42.321Z,99803.56
2022-10-21T22:30:13.198Z,99784.50
2022-10-21T22:32:41.872Z,99798.75
2022-10-21T22:35:11.563Z,99803.25
2022-10-21T22:37:40.673Z,99807.72
2022-10-21T22:40:12.019Z,99795.91
2022-10-21T22:42:40.477Z,99806.09
2022-10-21T22:45:10.118Z,99796.75
2022-10-21T22:47:38.855Z,99795.75
2022-10-21T22:50:08.012Z,99791.78
2022-10-21T22:52:42.463Z,99774.44
2022-10-21T22:55:12.760Z,99790.94
2022-10-21T22:57:41.237Z,99792.88
2022-10-21T23:00:10.590Z,99789.47
2022-10-21T23:02:39.200Z,99790.53
2022-10-21T23:05:08.272Z,99779.66
2022-10-21T23:07:36.821Z,99778.28
2022-10-21T23:12:41.294Z,99759.91
2022-10-21T23:15:11.134Z,99770.53
2022-10-21T23:17:39.736Z,99773.28
2022-10-21T23:20:09.331Z,99778.16
2022-10-21T23:22:38.339Z,99751.53
2022-10-21T23:25:08.130Z,99757.88
2022-10-21T23:27:36.864Z,99761.38
2022-10-21T23:30:07.956Z,99746.72
2022-10-21T23:32:36.873Z,99742.09
2022-10-21T23:35:06.397Z,99733.72
2022-10-21T23:37:34.830Z,99741.66
2022-10-21T23:40:03.419Z,99733.41
2022-10-21T23:42:31.892Z,99724.13
2022-10-21T23:45:00.302Z,99724.78
2022-10-21T23:47:30.596Z,99722.66
2022-10-21T23:49:59.022Z,99715.09
2022-10-21T23:52:27.447Z,99711.78
2022-10-21T23:54:56.327Z,99703.03
2022-10-21T23:57:25.960Z,99699.22
2022-10-21T23:59:54.458Z,99691.81
